createdAt,value
2023-05-05T00:00:42.812Z,613.00
2023-05-05T00:01:42.837Z,616.00
2023-05-05T00:02:42.968Z,614.00
2023-05-05T00:03:42.996Z,611.00
2023-05-05T00:04:42.862Z,612.00
2023-05-05T00:05:42.929Z,608.00
2023-05-05T00:06:42.920Z,612.00
2023-05-05T00:07:42.948Z,609.00
2023-05-05T00:08:43.011Z,612.00
2023-05-05T00:09:43.026Z,612.00
2023-05-05T00:10:43.095Z,611.00
2023-05-05T00:11:43.162Z,615.00
2023-05-05T00:12:43.217Z,612.00
2023-05-05T00:13:43.214Z,615.00
2023-05-05T00:14:43.254Z,611.00
2023-05-05T00:15:43.284Z,613.00
2023-05-05T00:16:43.368Z,611.00
2023-05-05T00:17:43.401Z,612.00
2023-05-05T00:18:43.401Z,612.00
2023-05-05T00:19:43.442Z,608.00
2023-05-05T00:20:43.513Z,616.00
2023-05-05T00:21:43.512Z,612.00
2023-05-05T00:22:43.526Z,611.00
2023-05-05T00:23:43.552Z,616.00
2023-05-05T00:24:43.591Z,617.00
2023-05-05T00:25:43.686Z,614.00
2023-05-05T00:26:43.654Z,608.00
2023-05-05T00:27:43.712Z,608.00
2023-05-05T00:28:43.765Z,608.00
2023-05-05T00:29:43.778Z,610.00
2023-05-05T00:30:43.831Z,614.00
2023-05-05T00:31:43.842Z,616.00
2023-05-05T00:32:43.832Z,612.00
2023-05-05T00:33:43.833Z,611.00
2023-05-05T00:34:43.852Z,612.00
2023-05-05T00:35:43.877Z,613.00
2023-05-05T00:36:43.888Z,611.00
2023-05-05T00:37:43.907Z,613.00
2023-05-05T00:38:43.919Z,612.00
2023-05-05T00:39:43.953Z,613.00
2023-05-05T00:40:43.970Z,607.00
2023-05-05T00:41:44.000Z,613.00
2023-05-05T00:42:43.991Z,610.00
2023-05-05T00:43:43.978Z,611.00
2023-05-05T00:44:44.006Z,611.00
2023-05-05T00:45:44.046Z,611.00
2023-05-05T00:46:44.081Z,611.00
2023-05-05T00:47:44.120Z,609.00
2023-05-05T00:48:44.064Z,605.00
2023-05-05T00:49:44.078Z,613.00
2023-05-05T00:50:44.069Z,615.00
2023-05-05T00:51:44.082Z,611.00
2023-05-05T00:52:44.088Z,609.00
2023-05-05T00:53:44.105Z,611.00
2023-05-05T00:54:44.074Z,608.00
2023-05-05T00:55:44.096Z,607.00
2023-05-05T00:56:44.081Z,612.00
2023-05-05T00:57:44.076Z,607.00
2023-05-05T00:58:44.078Z,605.00
2023-05-05T00:59:44.084Z,608.00
2023-05-05T01:00:44.068Z,606.00
2023-05-05T01:01:44.078Z,606.00
2023-05-05T01:02:44.157Z,609.00
2023-05-05T01:03:44.169Z,614.00
2023-05-05T01:04:44.091Z,606.00
2023-05-05T01:05:44.111Z,609.00
2023-05-05T01:06:44.083Z,608.00
2023-05-05T01:07:44.112Z,607.00
2023-05-05T01:08:44.097Z,612.00
2023-05-05T01:09:44.102Z,610.00
2023-05-05T01:10:44.093Z,610.00
2023-05-05T01:11:44.083Z,614.00
2023-05-05T01:12:44.120Z,610.00
2023-05-05T01:13:44.089Z,607.00
2023-05-05T01:14:44.102Z,613.00
2023-05-05T01:15:44.081Z,612.00
2023-05-05T01:16:44.135Z,608.00
2023-05-05T01:17:44.133Z,608.00
2023-05-05T01:18:44.087Z,610.00
2023-05-05T01:19:44.100Z,609.00
2023-05-05T01:20:44.094Z,609.00
2023-05-05T01:21:44.086Z,601.00
2023-05-05T01:22:44.077Z,606.00
2023-05-05T01:23:44.076Z,609.00
2023-05-05T01:24:44.078Z,603.00
2023-05-05T01:25:44.085Z,606.00
2023-05-05T01:26:44.133Z,606.00
2023-05-05T01:27:44.127Z,602.00
2023-05-05T01:28:44.093Z,606.00
2023-05-05T01:29:44.116Z,612.00
2023-05-05T01:30:44.079Z,601.00
2023-05-05T01:31:44.166Z,604.00
2023-05-05T01:32:44.158Z,600.00
2023-05-05T01:33:44.080Z,604.00
2023-05-05T01:34:44.084Z,611.00
2023-05-05T01:35:44.104Z,601.00
2023-05-05T01:36:44.108Z,600.00
2023-05-05T01:37:44.092Z,604.00
2023-05-05T01:38:44.084Z,610.00
2023-05-05T01:39:44.097Z,607.00
2023-05-05T01:40:44.121Z,610.00
2023-05-05T01:41:44.108Z,606.00
2023-05-05T01:42:44.092Z,605.00
2023-05-05T01:43:44.121Z,607.00
2023-05-05T01:44:44.088Z,609.00
2023-05-05T01:45:44.115Z,603.00
2023-05-05T01:46:44.131Z,608.00
2023-05-05T01:47:44.143Z,606.00
2023-05-05T01:48:44.123Z,605.00
2023-05-05T01:49:44.079Z,611.00
2023-05-05T01:50:44.091Z,606.00
2023-05-05T01:51:44.073Z,614.00
2023-05-05T01:52:44.080Z,605.00
2023-05-05T01:53:44.046Z,602.00
2023-05-05T01:54:44.066Z,609.00
2023-05-05T01:55:44.084Z,605.00
2023-05-05T01:56:44.052Z,603.00
2023-05-05T01:57:44.069Z,607.00
2023-05-05T01:58:44.047Z,613.00
2023-05-05T01:59:44.049Z,608.00
2023-05-05T02:00:44.117Z,608.00
2023-05-05T02:01:44.090Z,610.00
2023-05-05T02:02:44.144Z,611.00
2023-05-05T02:03:44.073Z,609.00
2023-05-05T02:04:44.052Z,607.00
2023-05-05T02:05:44.049Z,611.00
2023-05-05T02:06:44.047Z,605.00
2023-05-05T02:07:44.052Z,609.00
2023-05-05T02:08:44.016Z,603.00
2023-05-05T02:09:44.674Z,603.00
2023-05-05T02:10:44.059Z,603.00
2023-05-05T02:11:44.023Z,608.00
2023-05-05T02:12:44.070Z,611.00
2023-05-05T02:13:44.101Z,603.00
2023-05-05T02:14:44.050Z,604.00
2023-05-05T02:15:44.104Z,606.00
2023-05-05T02:16:44.022Z,607.00
2023-05-05T02:17:44.084Z,609.00
2023-05-05T02:18:44.079Z,607.00
2023-05-05T02:19:44.021Z,606.00
2023-05-05T02:20:44.080Z,606.00
2023-05-05T02:21:44.053Z,607.00
2023-05-05T02:22:44.049Z,609.00
2023-05-05T02:23:44.057Z,606.00
2023-05-05T02:24:44.022Z,604.00
2023-05-05T02:25:44.032Z,605.00
2023-05-05T02:26:44.059Z,609.00
2023-05-05T02:27:44.061Z,607.00
2023-05-05T02:28:44.019Z,606.00
2023-05-05T02:29:44.048Z,599.00
2023-05-05T02:30:44.069Z,607.00
2023-05-05T02:31:44.166Z,602.00
2023-05-05T02:32:44.056Z,607.00
2023-05-05T02:33:44.022Z,605.00
2023-05-05T02:34:44.031Z,607.00
2023-05-05T02:35:44.056Z,606.00
2023-05-05T02:36:44.013Z,605.00
2023-05-05T02:37:44.032Z,605.00
2023-05-05T02:38:44.040Z,603.00
2023-05-05T02:39:44.003Z,609.00
2023-05-05T02:40:44.185Z,601.00
2023-05-05T02:41:43.986Z,602.00
2023-05-05T02:42:44.042Z,600.00
2023-05-05T02:43:43.987Z,608.00
2023-05-05T02:44:43.985Z,600.00
2023-05-05T02:45:44.011Z,606.00
2023-05-05T02:46:44.017Z,606.00
2023-05-05T02:47:43.988Z,602.00
2023-05-05T02:48:43.962Z,605.00
2023-05-05T02:49:43.999Z,603.00
2023-05-05T02:50:44.009Z,602.00
2023-05-05T02:51:43.950Z,606.00
2023-05-05T02:52:43.987Z,604.00
2023-05-05T02:53:43.968Z,606.00
2023-05-05T02:54:43.954Z,607.00
2023-05-05T02:55:43.972Z,605.00
2023-05-05T02:56:43.947Z,604.00
2023-05-05T02:57:44.002Z,605.00
2023-05-05T02:58:43.980Z,607.00
2023-05-05T02:59:43.989Z,601.00
2023-05-05T03:00:43.947Z,603.00
2023-05-05T03:01:43.969Z,600.00
2023-05-05T03:02:44.048Z,605.00
2023-05-05T03:03:44.088Z,601.00
2023-05-05T03:04:43.957Z,605.00
2023-05-05T03:05:43.948Z,603.00
2023-05-05T03:06:43.971Z,603.00
2023-05-05T03:07:43.977Z,603.00
2023-05-05T03:08:43.959Z,601.00
2023-05-05T03:09:43.933Z,605.00
2023-05-05T03:10:43.948Z,599.00
2023-05-05T03:11:43.946Z,607.00
2023-05-05T03:12:43.948Z,603.00
2023-05-05T03:13:43.987Z,606.00
2023-05-05T03:14:43.932Z,599.00
2023-05-05T03:15:43.925Z,598.00
2023-05-05T03:16:44.115Z,603.00
2023-05-05T03:17:44.017Z,606.00
2023-05-05T03:18:43.924Z,602.00
2023-05-05T03:19:43.932Z,604.00
2023-05-05T03:20:43.973Z,600.00
2023-05-05T03:21:43.931Z,601.00
2023-05-05T03:22:43.959Z,599.00
2023-05-05T03:23:43.928Z,601.00
2023-05-05T03:24:43.953Z,600.00
2023-05-05T03:25:43.920Z,599.00
2023-05-05T03:26:43.933Z,606.00
2023-05-05T03:27:43.957Z,597.00
2023-05-05T03:28:43.906Z,599.00
2023-05-05T03:29:43.936Z,602.00
2023-05-05T03:30:43.911Z,598.00
2023-05-05T03:31:44.000Z,601.00
2023-05-05T03:32:43.957Z,599.00
2023-05-05T03:33:43.952Z,596.00
2023-05-05T03:34:43.920Z,600.00
2023-05-05T03:35:43.947Z,597.00
2023-05-05T03:36:43.948Z,596.00
2023-05-05T03:37:43.947Z,601.00
2023-05-05T03:38:43.945Z,597.00
2023-05-05T03:39:43.947Z,597.00
2023-05-05T03:40:44.761Z,597.00
2023-05-05T03:41:43.985Z,595.00
2023-05-05T03:42:43.970Z,600.00
2023-05-05T03:43:43.938Z,593.00
2023-05-05T03:44:43.951Z,594.00
2023-05-05T03:45:43.983Z,598.00
2023-05-05T03:46:43.971Z,598.00
2023-05-05T03:47:44.043Z,599.00
2023-05-05T03:48:43.951Z,593.00
2023-05-05T03:49:43.954Z,598.00
2023-05-05T03:50:43.964Z,599.00
2023-05-05T03:51:44.002Z,598.00
2023-05-05T03:52:44.035Z,599.00
2023-05-05T03:53:44.012Z,596.00
2023-05-05T03:54:44.041Z,600.00
2023-05-05T03:55:44.024Z,592.00
2023-05-05T03:56:44.044Z,595.00
2023-05-05T03:57:44.042Z,593.00
2023-05-05T03:58:44.044Z,596.00
2023-05-05T03:59:44.043Z,597.00
2023-05-05T04:00:44.045Z,598.00
2023-05-05T04:01:44.070Z,594.00
2023-05-05T04:02:44.155Z,600.00
2023-05-05T04:03:44.147Z,594.00
2023-05-05T04:04:44.056Z,596.00
2023-05-05T04:05:44.035Z,597.00
2023-05-05T04:06:44.085Z,591.00
2023-05-05T04:07:44.135Z,598.00
2023-05-05T04:08:44.052Z,595.00
2023-05-05T04:09:44.066Z,597.00
2023-05-05T04:10:44.051Z,599.00
2023-05-05T04:11:44.058Z,596.00
2023-05-05T04:12:44.118Z,590.00
2023-05-05T04:13:44.077Z,596.00
2023-05-05T04:14:44.076Z,596.00
2023-05-05T04:15:44.110Z,597.00
2023-05-05T04:16:44.159Z,596.00
2023-05-05T04:17:44.262Z,597.00
2023-05-05T04:18:44.165Z,597.00
2023-05-05T04:19:44.167Z,595.00
2023-05-05T04:20:44.176Z,592.00
2023-05-05T04:21:44.181Z,592.00
2023-05-05T04:22:44.253Z,595.00
2023-05-05T04:23:44.200Z,597.00
2023-05-05T04:24:44.226Z,598.00
2023-05-05T04:25:44.244Z,595.00
2023-05-05T04:26:44.310Z,595.00
2023-05-05T04:27:44.289Z,596.00
2023-05-05T04:28:44.281Z,595.00
2023-05-05T04:29:44.310Z,595.00
2023-05-05T04:30:44.303Z,597.00
2023-05-05T04:31:44.341Z,592.00
2023-05-05T04:32:44.370Z,598.00
2023-05-05T04:33:44.330Z,594.00
2023-05-05T04:34:44.334Z,596.00
2023-05-05T04:35:44.342Z,595.00
2023-05-05T04:36:44.353Z,590.00
2023-05-05T04:37:44.397Z,596.00
2023-05-05T04:38:44.393Z,595.00
2023-05-05T04:39:44.355Z,595.00
2023-05-05T04:40:44.359Z,595.00
2023-05-05T04:41:44.362Z,591.00
2023-05-05T04:42:44.380Z,589.00
2023-05-05T04:43:44.370Z,595.00
2023-05-05T04:44:44.371Z,593.00
2023-05-05T04:45:44.378Z,587.00
2023-05-05T04:46:44.393Z,593.00
2023-05-05T04:47:44.388Z,587.00
2023-05-05T04:48:44.361Z,588.00
2023-05-05T04:49:44.363Z,590.00
2023-05-05T04:50:44.359Z,592.00
2023-05-05T04:51:44.343Z,591.00
2023-05-05T04:52:44.341Z,591.00
2023-05-05T04:53:44.339Z,592.00
2023-05-05T04:54:44.367Z,585.00
2023-05-05T04:55:44.369Z,587.00
2023-05-05T04:56:44.407Z,588.00
2023-05-05T04:57:44.394Z,595.00
2023-05-05T04:58:44.406Z,590.00
2023-05-05T04:59:44.441Z,590.00
2023-05-05T05:00:44.431Z,587.00
2023-05-05T05:01:44.440Z,591.00
2023-05-05T05:02:44.517Z,587.00
2023-05-05T05:03:44.514Z,590.00
2023-05-05T05:04:44.429Z,591.00
2023-05-05T05:05:44.443Z,585.00
2023-05-05T05:06:44.432Z,586.00
2023-05-05T05:07:44.449Z,583.00
2023-05-05T05:08:44.450Z,587.00
2023-05-05T05:09:44.430Z,587.00
2023-05-05T05:10:44.444Z,582.00
2023-05-05T05:11:44.467Z,586.00
2023-05-05T05:12:44.546Z,590.00
2023-05-05T05:13:44.498Z,582.00
2023-05-05T05:14:44.520Z,582.00
2023-05-05T05:15:44.496Z,589.00
2023-05-05T05:16:44.556Z,584.00
2023-05-05T05:17:44.544Z,587.00
2023-05-05T05:18:44.516Z,588.00
2023-05-05T05:19:44.566Z,585.00
2023-05-05T05:20:44.560Z,582.00
2023-05-05T05:21:44.552Z,589.00
2023-05-05T05:22:44.562Z,580.00
2023-05-05T05:23:44.559Z,582.00
2023-05-05T05:24:44.654Z,585.00
2023-05-05T05:25:44.580Z,583.00
2023-05-05T05:26:44.556Z,589.00
2023-05-05T05:27:45.538Z,585.00
2023-05-05T05:28:44.557Z,590.00
2023-05-05T05:29:44.541Z,591.00
2023-05-05T05:30:44.546Z,585.00
2023-05-05T05:31:44.639Z,586.00
2023-05-05T05:32:44.565Z,589.00
2023-05-05T05:33:44.511Z,589.00
2023-05-05T05:34:44.499Z,584.00
2023-05-05T05:35:44.560Z,587.00
2023-05-05T05:36:44.602Z,600.00
2023-05-05T05:37:44.475Z,600.00
2023-05-05T05:38:44.596Z,600.00
2023-05-05T05:39:44.515Z,601.00
2023-05-05T05:40:44.459Z,615.00
2023-05-05T05:41:44.482Z,609.00
2023-05-05T05:42:44.449Z,612.00
2023-05-05T05:43:44.447Z,616.00
2023-05-05T05:44:44.449Z,621.00
2023-05-05T05:45:44.519Z,645.00
2023-05-05T05:46:44.473Z,646.00
2023-05-05T05:47:44.491Z,656.00
2023-05-05T05:48:44.412Z,661.00
2023-05-05T05:49:44.403Z,662.00
2023-05-05T05:50:44.408Z,678.00
2023-05-05T05:51:44.377Z,675.00
2023-05-05T05:52:44.367Z,683.00
2023-05-05T05:53:44.375Z,692.00
2023-05-05T05:54:44.386Z,692.00
2023-05-05T05:55:44.361Z,695.00
2023-05-05T05:56:44.357Z,704.00
2023-05-05T05:57:44.342Z,719.00
2023-05-05T05:58:44.344Z,704.00
2023-05-05T05:59:44.329Z,711.00
2023-05-05T06:00:44.329Z,716.00
2023-05-05T06:01:44.352Z,716.00
2023-05-05T06:02:44.361Z,715.00
2023-05-05T06:03:44.361Z,710.00
2023-05-05T06:04:44.316Z,718.00
2023-05-05T06:05:44.288Z,710.00
2023-05-05T06:06:44.721Z,722.00
2023-05-05T06:07:44.325Z,720.00
2023-05-05T06:08:44.731Z,730.00
2023-05-05T06:09:44.349Z,718.00
2023-05-05T06:10:44.381Z,738.00
2023-05-05T06:11:44.467Z,723.00
2023-05-05T06:12:44.512Z,737.00
2023-05-05T06:13:44.534Z,723.00
2023-05-05T06:14:44.556Z,722.00
2023-05-05T06:15:44.639Z,727.00
2023-05-05T06:16:44.746Z,737.00
2023-05-05T06:17:44.754Z,737.00
2023-05-05T06:18:44.790Z,734.00
2023-05-05T06:19:44.818Z,726.00
2023-05-05T06:20:44.833Z,719.00
2023-05-05T06:21:44.854Z,722.00
2023-05-05T06:22:44.909Z,731.00
2023-05-05T06:23:44.892Z,730.00
2023-05-05T06:24:44.935Z,730.00
2023-05-05T06:25:44.928Z,734.00
2023-05-05T06:26:44.964Z,720.00
2023-05-05T06:27:45.744Z,731.00
2023-05-05T06:28:45.275Z,734.00
2023-05-05T06:29:45.148Z,728.00
2023-05-05T06:30:45.130Z,737.00
2023-05-05T06:31:45.207Z,728.00
2023-05-05T06:32:45.282Z,730.00
2023-05-05T06:33:45.221Z,732.00
2023-05-05T06:34:45.266Z,736.00
2023-05-05T06:35:46.241Z,744.00
2023-05-05T06:36:45.369Z,732.00
2023-05-05T06:37:45.436Z,735.00
2023-05-05T06:38:45.740Z,782.00
2023-05-05T06:39:45.499Z,782.00
2023-05-05T06:40:45.592Z,777.00
2023-05-05T06:41:45.629Z,809.00
2023-05-05T06:42:45.648Z,815.00
2023-05-05T06:43:45.699Z,797.00
2023-05-05T06:44:45.762Z,824.00
2023-05-05T06:45:45.784Z,841.00
2023-05-05T06:46:45.866Z,844.00
2023-05-05T06:47:45.848Z,845.00
2023-05-05T06:48:45.858Z,848.00
2023-05-05T06:49:45.921Z,843.00
2023-05-05T06:50:45.856Z,799.00
2023-05-05T06:51:45.922Z,792.00
2023-05-05T06:52:45.890Z,739.00
2023-05-05T06:53:45.873Z,754.00
2023-05-05T06:54:45.867Z,744.00
2023-05-05T06:55:45.897Z,764.00
2023-05-05T06:56:45.925Z,761.00
2023-05-05T06:57:45.917Z,748.00
2023-05-05T06:58:45.957Z,655.00
2023-05-05T06:59:45.952Z,615.00
2023-05-05T07:00:46.005Z,576.00
2023-05-05T07:01:46.005Z,541.00
2023-05-05T07:02:46.047Z,558.00
2023-05-05T07:03:46.093Z,584.00
2023-05-05T07:04:46.048Z,586.00
2023-05-05T07:05:46.072Z,592.00
2023-05-05T07:06:46.092Z,586.00
2023-05-05T07:07:46.235Z,599.00
2023-05-05T07:08:46.211Z,601.00
2023-05-05T07:09:46.274Z,612.00
2023-05-05T07:10:46.344Z,613.00
2023-05-05T07:11:46.469Z,623.00
2023-05-05T07:12:46.444Z,636.00
2023-05-05T07:13:46.549Z,645.00
2023-05-05T07:14:46.570Z,659.00
2023-05-05T07:15:46.729Z,670.00
2023-05-05T07:16:46.704Z,690.00
2023-05-05T07:17:46.713Z,727.00
2023-05-05T07:18:46.720Z,773.00
2023-05-05T07:19:46.763Z,740.00
2023-05-05T07:20:46.825Z,712.00
2023-05-05T07:21:46.860Z,752.00
2023-05-05T07:22:46.894Z,740.00
2023-05-05T07:23:47.035Z,736.00
2023-05-05T07:24:47.344Z,612.00
2023-05-05T07:25:47.017Z,598.00
2023-05-05T07:26:47.062Z,608.00
2023-05-05T07:27:47.115Z,641.00
2023-05-05T07:28:47.307Z,644.00
2023-05-05T07:29:47.208Z,644.00
2023-05-05T07:30:47.217Z,654.00
2023-05-05T07:31:47.304Z,661.00
2023-05-05T07:32:47.288Z,651.00
2023-05-05T07:33:47.842Z,575.00
2023-05-05T07:34:47.340Z,522.00
2023-05-05T07:35:47.361Z,500.00
2023-05-05T07:36:47.389Z,501.00
2023-05-05T07:37:47.621Z,500.00
2023-05-05T07:38:47.506Z,506.00
2023-05-05T07:39:47.645Z,497.00
2023-05-05T07:40:47.553Z,505.00
2023-05-05T07:41:47.615Z,500.00
2023-05-05T07:42:47.639Z,500.00
2023-05-05T07:43:47.768Z,496.00
2023-05-05T07:44:47.770Z,510.00
2023-05-05T07:45:47.867Z,517.00
2023-05-05T07:46:47.951Z,519.00
2023-05-05T07:47:48.014Z,500.00
2023-05-05T07:48:47.956Z,509.00
2023-05-05T07:49:47.947Z,500.00
2023-05-05T07:50:48.031Z,500.00
2023-05-05T07:51:48.067Z,501.00
2023-05-05T07:52:51.786Z,510.00
2023-05-05T07:53:49.074Z,510.00
2023-05-05T07:54:48.067Z,493.00
2023-05-05T07:55:48.034Z,487.00
2023-05-05T07:56:48.168Z,473.00
2023-05-05T07:57:48.019Z,463.00
2023-05-05T07:58:48.027Z,506.00
2023-05-05T07:59:48.012Z,491.00
2023-05-05T08:00:48.053Z,506.00
2023-05-05T08:01:48.338Z,491.00
2023-05-05T08:02:48.163Z,499.00
2023-05-05T08:03:48.101Z,503.00
2023-05-05T08:04:48.023Z,504.00
2023-05-05T08:05:49.409Z,511.00
2023-05-05T08:06:47.961Z,505.00
2023-05-05T08:07:47.994Z,505.00
2023-05-05T08:08:48.033Z,538.00
2023-05-05T08:09:47.939Z,597.00
2023-05-05T08:10:47.938Z,620.00
2023-05-05T08:11:48.078Z,645.00
2023-05-05T08:12:48.022Z,657.00
2023-05-05T08:13:47.896Z,706.00
2023-05-05T08:14:47.905Z,787.00
2023-05-05T08:15:47.971Z,769.00
2023-05-05T08:16:48.788Z,848.00
2023-05-05T08:17:48.324Z,889.00
2023-05-05T08:18:47.869Z,886.00
2023-05-05T08:19:47.873Z,952.00
2023-05-05T08:20:47.844Z,976.00
2023-05-05T08:21:47.871Z,1034.00
2023-05-05T08:22:48.008Z,969.00
2023-05-05T08:23:47.857Z,839.00
2023-05-05T08:24:47.888Z,870.00
2023-05-05T08:25:47.886Z,806.00
2023-05-05T08:26:47.815Z,872.00
2023-05-05T08:27:47.983Z,964.00
2023-05-05T08:28:47.809Z,941.00
2023-05-05T08:29:47.824Z,977.00
2023-05-05T08:30:47.788Z,1016.00
2023-05-05T08:31:47.865Z,1053.00
2023-05-05T08:32:47.842Z,1088.00
2023-05-05T08:33:47.781Z,1077.00
2023-05-05T08:34:47.915Z,1123.00
2023-05-05T08:35:47.772Z,1090.00
2023-05-05T08:36:47.769Z,1172.00
2023-05-05T08:37:47.875Z,1174.00
2023-05-05T08:38:47.729Z,1164.00
2023-05-05T08:39:47.725Z,1195.00
2023-05-05T08:40:47.744Z,1192.00
2023-05-05T08:41:47.780Z,1175.00
2023-05-05T08:42:47.920Z,1236.00
2023-05-05T08:43:47.894Z,1255.00
2023-05-05T08:44:48.316Z,1234.00
2023-05-05T08:45:47.936Z,1267.00
2023-05-05T08:46:48.061Z,1300.00
2023-05-05T08:47:48.123Z,1327.00
2023-05-05T08:48:48.043Z,1350.00
2023-05-05T08:49:48.083Z,1392.00
2023-05-05T08:50:48.114Z,1417.00
2023-05-05T08:51:48.107Z,1442.00
2023-05-05T08:52:49.929Z,1486.00
2023-05-05T08:53:48.117Z,1530.00
2023-05-05T08:54:48.126Z,1576.00
2023-05-05T08:55:48.120Z,1617.00
2023-05-05T08:56:48.102Z,1652.00
2023-05-05T08:57:48.127Z,1683.00
2023-05-05T08:58:48.106Z,1699.00
2023-05-05T08:59:48.246Z,1736.00
2023-05-05T09:00:48.100Z,1764.00
2023-05-05T09:01:48.062Z,1791.00
2023-05-05T09:02:48.454Z,1819.00
2023-05-05T09:03:48.063Z,1836.00
2023-05-05T09:04:48.099Z,1880.00
2023-05-05T09:05:48.047Z,1906.00
2023-05-05T09:06:48.048Z,1890.00
2023-05-05T09:07:48.034Z,1865.00
2023-05-05T09:08:48.009Z,1856.00
2023-05-05T09:09:48.002Z,1866.00
2023-05-05T09:10:48.019Z,1887.00
2023-05-05T09:11:47.982Z,1765.00
2023-05-05T09:12:48.034Z,1838.00
2023-05-05T09:13:48.019Z,1883.00
2023-05-05T09:14:47.996Z,1924.00
2023-05-05T09:15:47.969Z,1921.00
2023-05-05T09:16:47.975Z,1935.00
2023-05-05T09:17:48.013Z,1990.00
2023-05-05T09:18:47.985Z,1981.00
2023-05-05T09:19:47.930Z,1956.00
2023-05-05T09:20:47.957Z,1996.00
2023-05-05T09:21:47.930Z,2037.00
2023-05-05T09:22:47.910Z,2056.00
2023-05-05T09:23:47.919Z,2065.00
2023-05-05T09:24:47.920Z,2118.00
2023-05-05T09:25:47.913Z,2134.00
2023-05-05T09:26:47.904Z,2174.00
2023-05-05T09:27:47.913Z,2164.00
2023-05-05T09:28:47.935Z,2119.00
2023-05-05T09:29:47.867Z,1996.00
2023-05-05T09:30:47.921Z,1889.00
2023-05-05T09:31:47.939Z,1780.00
2023-05-05T09:32:47.901Z,1900.00
2023-05-05T09:33:47.955Z,1888.00
2023-05-05T09:34:47.906Z,1904.00
2023-05-05T09:35:47.821Z,1899.00
2023-05-05T09:36:48.000Z,1908.00
2023-05-05T09:37:47.913Z,1928.00
2023-05-05T09:38:47.824Z,1933.00
2023-05-05T09:39:47.868Z,1912.00
2023-05-05T09:40:47.778Z,1915.00
2023-05-05T09:41:47.818Z,1889.00
2023-05-05T09:42:47.799Z,1916.00
2023-05-05T09:43:47.801Z,1881.00
2023-05-05T09:44:49.829Z,1849.00
2023-05-05T09:45:47.902Z,1804.00
2023-05-05T09:46:48.904Z,1798.00
2023-05-05T09:47:48.138Z,1790.00
2023-05-05T09:48:48.005Z,1788.00
2023-05-05T09:49:48.003Z,1773.00
2023-05-05T09:50:48.007Z,1756.00
2023-05-05T09:51:48.066Z,1701.00
2023-05-05T09:52:48.791Z,1727.00
2023-05-05T09:53:47.975Z,1733.00
2023-05-05T09:54:48.044Z,1763.00
2023-05-05T09:55:47.989Z,1760.00
2023-05-05T09:56:48.036Z,1676.00
2023-05-05T09:57:48.027Z,1645.00
2023-05-05T09:58:48.035Z,1655.00
2023-05-05T09:59:48.007Z,1617.00
2023-05-05T10:00:48.037Z,1596.00
2023-05-05T10:01:48.038Z,1585.00
2023-05-05T10:02:48.035Z,1569.00
2023-05-05T10:03:48.029Z,1553.00
2023-05-05T10:04:48.103Z,1553.00
2023-05-05T10:05:48.051Z,1565.00
2023-05-05T10:06:48.040Z,1563.00
2023-05-05T10:07:48.075Z,1535.00
2023-05-05T10:08:48.020Z,1521.00
2023-05-05T10:09:48.091Z,1461.00
2023-05-05T10:10:47.999Z,1515.00
2023-05-05T10:11:48.006Z,1449.00
2023-05-05T10:12:48.039Z,1420.00
2023-05-05T10:13:48.007Z,1385.00
2023-05-05T10:14:48.032Z,1308.00
2023-05-05T10:15:48.131Z,1312.00
2023-05-05T10:16:48.012Z,1315.00
2023-05-05T10:18:05.108Z,1362.00
2023-05-05T10:18:49.006Z,1365.00
2023-05-05T10:19:48.075Z,1373.00
2023-05-05T10:20:48.000Z,1296.00
2023-05-05T10:21:47.983Z,1387.00
2023-05-05T10:22:47.992Z,1328.00
2023-05-05T10:23:48.145Z,1163.00
2023-05-05T10:24:47.973Z,1213.00
2023-05-05T10:25:48.002Z,1315.00
2023-05-05T10:26:48.050Z,1318.00
2023-05-05T10:27:48.329Z,1072.00
2023-05-05T10:28:48.185Z,1181.00
2023-05-05T10:29:48.199Z,1057.00
2023-05-05T10:30:48.261Z,1102.00
2023-05-05T10:31:48.304Z,1132.00
2023-05-05T10:32:59.357Z,1051.00
2023-05-05T10:33:49.389Z,941.00
2023-05-05T10:34:48.336Z,997.00
2023-05-05T10:35:48.521Z,1041.00
2023-05-05T10:36:48.395Z,869.00
2023-05-05T10:37:48.495Z,792.00
2023-05-05T10:38:48.414Z,826.00
2023-05-05T10:39:48.457Z,884.00
2023-05-05T10:40:48.489Z,917.00
2023-05-05T10:41:48.538Z,537.00
2023-05-05T10:42:48.868Z,552.00
2023-05-05T10:43:48.599Z,603.00
2023-05-05T10:44:48.874Z,744.00
2023-05-05T10:45:48.746Z,872.00
2023-05-05T10:46:48.723Z,896.00
2023-05-05T10:47:48.850Z,1047.00
2023-05-05T10:48:48.849Z,1113.00
2023-05-05T10:49:49.382Z,665.00
2023-05-05T10:50:48.873Z,777.00
2023-05-05T10:51:48.887Z,662.00
2023-05-05T10:52:48.947Z,737.00
2023-05-05T10:53:49.048Z,879.00
2023-05-05T10:54:49.044Z,958.00
2023-05-05T10:55:49.051Z,629.00
2023-05-05T10:56:49.182Z,400.00
2023-05-05T10:57:49.200Z,404.00
2023-05-05T10:58:59.806Z,400.00
2023-05-05T10:59:50.283Z,400.00
2023-05-05T11:00:49.212Z,411.00
2023-05-05T11:01:49.176Z,400.00
2023-05-05T11:02:49.200Z,437.00
2023-05-05T11:03:49.236Z,400.00
2023-05-05T11:04:49.177Z,400.00
2023-05-05T11:05:49.161Z,400.00
2023-05-05T11:06:49.821Z,400.00
2023-05-05T11:07:49.147Z,400.00
2023-05-05T11:08:49.140Z,496.00
2023-05-05T11:09:49.171Z,589.00
2023-05-05T11:10:49.327Z,715.00
2023-05-05T11:11:49.168Z,505.00
2023-05-05T11:12:49.192Z,545.00
2023-05-05T11:13:49.221Z,557.00
2023-05-05T11:14:49.292Z,568.00
2023-05-05T11:15:49.307Z,601.00
2023-05-05T11:16:49.270Z,621.00
2023-05-05T11:17:49.309Z,753.00
2023-05-05T11:18:49.291Z,984.00
2023-05-05T11:19:49.290Z,1146.00
2023-05-05T11:20:49.298Z,1215.00
2023-05-05T11:21:49.335Z,1327.00
2023-05-05T11:22:49.354Z,1433.00
2023-05-05T11:23:49.913Z,1537.00
2023-05-05T11:24:49.416Z,1591.00
2023-05-05T11:25:49.439Z,1605.00
2023-05-05T11:26:49.517Z,1702.00
2023-05-05T11:27:49.541Z,1709.00
2023-05-05T11:28:49.561Z,1733.00
2023-05-05T11:29:51.509Z,1757.00
2023-05-05T11:30:49.677Z,1761.00
2023-05-05T11:31:49.716Z,1805.00
2023-05-05T11:32:49.849Z,1829.00
2023-05-05T11:33:49.838Z,1900.00
2023-05-05T11:34:49.871Z,1934.00
2023-05-05T11:35:49.913Z,1924.00
2023-05-05T11:36:50.012Z,1940.00
2023-05-05T11:37:50.045Z,1948.00
2023-05-05T11:38:50.146Z,1936.00
2023-05-05T11:39:50.173Z,2001.00
2023-05-05T11:40:50.225Z,2033.00
2023-05-05T11:41:50.361Z,2050.00
2023-05-05T11:42:50.353Z,2048.00
2023-05-05T11:43:50.418Z,2047.00
2023-05-05T11:44:50.446Z,2060.00
2023-05-05T11:45:50.540Z,2102.00
2023-05-05T11:46:50.500Z,2104.00
2023-05-05T11:47:50.563Z,2124.00
2023-05-05T11:48:50.858Z,2117.00
2023-05-05T11:49:50.564Z,2090.00
2023-05-05T11:50:50.549Z,2103.00
2023-05-05T11:51:50.569Z,2182.00
2023-05-05T11:52:50.572Z,2213.00
2023-05-05T11:53:50.587Z,2177.00
2023-05-05T11:54:50.681Z,2198.00
2023-05-05T11:55:50.789Z,2212.00
2023-05-05T11:56:50.623Z,2231.00
2023-05-05T11:57:50.633Z,2248.00
2023-05-05T11:58:50.720Z,2236.00
2023-05-05T11:59:50.683Z,2238.00
2023-05-05T12:00:50.671Z,2250.00
2023-05-05T12:01:50.658Z,2252.00
2023-05-05T12:02:50.701Z,2271.00
2023-05-05T12:03:50.824Z,2268.00
2023-05-05T12:04:50.765Z,2241.00
2023-05-05T12:05:50.656Z,2269.00
2023-05-05T12:06:50.646Z,2262.00
2023-05-05T12:07:50.674Z,2282.00
2023-05-05T12:08:50.667Z,2280.00
2023-05-05T12:09:50.696Z,2291.00
2023-05-05T12:10:50.649Z,2307.00
2023-05-05T12:11:50.667Z,2298.00
2023-05-05T12:12:51.290Z,2301.00
2023-05-05T12:13:50.679Z,2305.00
2023-05-05T12:14:50.664Z,2320.00
2023-05-05T12:15:50.668Z,2315.00
2023-05-05T12:16:50.686Z,2325.00
2023-05-05T12:17:50.758Z,2315.00
2023-05-05T12:18:50.680Z,2305.00
2023-05-05T12:19:50.648Z,2312.00
2023-05-05T12:20:50.719Z,2303.00
2023-05-05T12:21:50.667Z,2317.00
2023-05-05T12:22:50.640Z,2325.00